createdAt,value
2018-05-06T00:00:41.074Z,4.50
2018-05-06T00:03:07.254Z,4.00
2018-05-06T00:05:33.472Z,3.63
2018-05-06T00:07:59.648Z,3.70
2018-05-06T00:10:25.866Z,4.33
2018-05-06T00:12:52.053Z,4.00
2018-05-06T00:15:18.278Z,3.70
2018-05-06T00:17:44.445Z,3.43
2018-05-06T00:20:10.649Z,3.80
2018-05-06T00:22:36.862Z,3.87
2018-05-06T00:25:03.063Z,3.53
2018-05-06T00:27:29.235Z,3.43
2018-05-06T00:29:55.425Z,3.43
2018-05-06T00:32:21.587Z,3.17
2018-05-06T00:34:47.815Z,3.47
2018-05-06T00:37:14.007Z,4.20
2018-05-06T00:39:40.950Z,4.80
2018-05-06T00:42:07.157Z,4.30
2018-05-06T00:44:33.339Z,4.20
2018-05-06T00:46:59.517Z,3.67
2018-05-06T00:49:25.698Z,4.60
2018-05-06T00:51:51.885Z,5.63
2018-05-06T00:54:30.340Z,4.97
2018-05-06T00:56:56.569Z,4.43
2018-05-06T00:59:22.730Z,4.67
2018-05-06T01:01:48.945Z,4.67
2018-05-06T01:04:15.109Z,4.10
2018-05-06T01:06:41.335Z,4.70
2018-05-06T01:09:07.499Z,4.47
2018-05-06T01:11:33.723Z,4.20
2018-05-06T01:13:59.885Z,4.20
2018-05-06T01:16:26.081Z,5.10
2018-05-06T01:18:52.259Z,4.90
2018-05-06T01:21:18.437Z,4.63
2018-05-06T01:23:44.592Z,4.87
2018-05-06T01:26:10.783Z,5.40
2018-05-06T01:28:36.983Z,5.50
2018-05-06T01:31:03.221Z,5.03
2018-05-06T01:33:29.390Z,5.20
2018-05-06T01:35:55.588Z,5.53
2018-05-06T01:38:21.786Z,5.13
2018-05-06T01:40:48.731Z,5.63
2018-05-06T01:43:15.958Z,5.73
2018-05-06T01:45:42.155Z,5.50
2018-05-06T01:48:08.336Z,5.23
2018-05-06T01:50:35.285Z,4.90
2018-05-06T01:53:01.446Z,5.70
2018-05-06T01:55:27.649Z,4.63
2018-05-06T01:57:53.817Z,5.67
2018-05-06T02:00:20.027Z,5.20
2018-05-06T02:02:46.216Z,5.20
2018-05-06T02:05:16.237Z,5.43
2018-05-06T02:07:42.425Z,5.80
2018-05-06T02:10:08.597Z,5.13
2018-05-06T02:12:34.787Z,5.57
2018-05-06T02:15:00.971Z,5.67
2018-05-06T02:17:27.145Z,5.67
2018-05-06T02:19:53.314Z,5.70
2018-05-06T02:22:19.505Z,5.53
2018-05-06T02:24:45.690Z,5.80
2018-05-06T02:27:11.935Z,5.83
2018-05-06T02:29:38.094Z,5.90
2018-05-06T02:32:05.071Z,5.63
2018-05-06T02:34:31.257Z,5.80
2018-05-06T02:36:58.189Z,6.40
2018-05-06T02:39:24.423Z,6.73
2018-05-06T02:41:50.634Z,6.13
2018-05-06T02:44:16.835Z,6.30
2018-05-06T02:46:43.051Z,6.80
2018-05-06T02:49:09.226Z,5.10
2018-05-06T02:51:35.429Z,8.70
2018-05-06T02:54:01.604Z,6.77
2018-05-06T02:56:27.811Z,5.83
2018-05-06T02:58:53.991Z,6.47
2018-05-06T03:01:20.213Z,6.43
2018-05-06T03:03:46.378Z,6.40
2018-05-06T03:06:12.591Z,6.50
2018-05-06T03:08:38.749Z,5.97
2018-05-06T03:11:04.991Z,6.70
2018-05-06T03:13:31.894Z,6.70
2018-05-06T03:15:58.839Z,6.23
2018-05-06T03:18:25.015Z,6.73
2018-05-06T03:20:51.195Z,7.30
2018-05-06T03:23:17.390Z,7.20
2018-05-06T03:25:43.627Z,7.20
2018-05-06T03:28:09.874Z,7.37
2018-05-06T03:30:36.045Z,7.03
2018-05-06T03:33:02.262Z,6.93
2018-05-06T03:35:29.165Z,6.30
2018-05-06T03:37:55.386Z,7.77
2018-05-06T03:40:21.573Z,6.53
2018-05-06T03:42:47.766Z,7.93
2018-05-06T03:45:13.954Z,7.00
2018-05-06T03:47:40.178Z,7.47
2018-05-06T03:50:06.474Z,7.10
2018-05-06T03:52:33.394Z,7.90
2018-05-06T03:54:59.615Z,6.73
2018-05-06T03:57:38.084Z,6.93
2018-05-06T04:00:16.470Z,6.87
2018-05-06T04:02:43.414Z,6.60
2018-05-06T04:05:09.594Z,6.27
2018-05-06T04:07:35.775Z,6.10
2018-05-06T04:10:02.005Z,7.33
2018-05-06T04:12:28.222Z,8.03
2018-05-06T04:14:55.133Z,7.63
2018-05-06T04:17:21.330Z,7.07
2018-05-06T04:19:47.522Z,6.83
2018-05-06T04:22:14.473Z,6.37
2018-05-06T04:24:40.669Z,6.27
2018-05-06T04:27:06.877Z,5.50
2018-05-06T04:29:33.050Z,6.33
2018-05-06T04:32:00.015Z,6.37
2018-05-06T04:34:26.193Z,5.73
2018-05-06T04:36:52.381Z,6.57
2018-05-06T04:39:19.587Z,6.03
2018-05-06T04:41:46.513Z,6.33
2018-05-06T04:44:12.795Z,5.93
2018-05-06T04:46:38.889Z,5.77
2018-05-06T04:49:05.225Z,6.43
2018-05-06T04:51:31.394Z,5.37
2018-05-06T04:53:57.578Z,6.00
2018-05-06T04:56:23.754Z,5.40
2018-05-06T04:58:49.951Z,6.10
2018-05-06T05:01:16.124Z,6.37
2018-05-06T05:03:42.342Z,6.63
2018-05-06T05:06:08.501Z,6.10
2018-05-06T05:08:35.481Z,5.23
2018-05-06T05:11:01.665Z,5.60
2018-05-06T05:13:28.618Z,6.33
2018-05-06T05:15:55.535Z,5.60
2018-05-06T05:18:21.730Z,5.13
2018-05-06T05:20:48.004Z,8.13
2018-05-06T05:23:14.177Z,5.77
2018-05-06T05:25:40.355Z,6.27
2018-05-06T05:28:06.558Z,5.80
2018-05-06T05:30:32.756Z,5.90
2018-05-06T05:32:58.949Z,6.50
2018-05-06T05:35:25.871Z,6.60
2018-05-06T05:37:52.336Z,6.10
2018-05-06T05:40:18.803Z,5.93
2018-05-06T05:42:45.079Z,6.03
2018-05-06T05:45:12.001Z,5.73
2018-05-06T05:47:38.322Z,4.80
2018-05-06T05:50:04.455Z,4.60
2018-05-06T05:52:30.622Z,4.87
2018-05-06T05:54:57.595Z,5.60
2018-05-06T05:57:23.762Z,5.07
2018-05-06T05:59:49.970Z,4.57
2018-05-06T06:02:16.154Z,5.37
2018-05-06T06:04:42.332Z,5.40
2018-05-06T06:07:08.502Z,4.70
2018-05-06T06:09:34.728Z,4.30
2018-05-06T06:12:00.925Z,4.60
2018-05-06T06:14:27.134Z,4.80
2018-05-06T06:16:53.314Z,4.47
2018-05-06T06:19:19.509Z,5.17
2018-05-06T06:21:45.690Z,4.97
2018-05-06T06:24:11.894Z,4.57
2018-05-06T06:26:38.070Z,4.10
2018-05-06T06:29:04.266Z,4.00
2018-05-06T06:31:30.445Z,5.87
2018-05-06T06:33:56.665Z,5.93
2018-05-06T06:36:23.673Z,5.80
2018-05-06T06:38:49.881Z,6.13
2018-05-06T06:41:16.108Z,5.83
2018-05-06T06:43:42.287Z,5.40
2018-05-06T06:46:08.499Z,4.70
2018-05-06T06:48:34.710Z,4.30
2018-05-06T06:51:00.884Z,5.90
2018-05-06T06:53:27.074Z,4.90
2018-05-06T06:55:53.279Z,4.20
2018-05-06T06:58:20.250Z,5.63
2018-05-06T07:00:46.421Z,4.63
2018-05-06T07:03:13.341Z,4.50
2018-05-06T07:05:39.527Z,4.50
2018-05-06T07:08:05.713Z,4.77
2018-05-06T07:10:32.629Z,4.57
2018-05-06T07:12:58.821Z,4.50
2018-05-06T07:15:25.014Z,4.60
2018-05-06T07:17:51.279Z,3.90
2018-05-06T07:20:17.406Z,3.93
2018-05-06T07:22:43.631Z,5.20
2018-05-06T07:25:09.863Z,4.20
2018-05-06T07:27:36.050Z,4.70
2018-05-06T07:30:02.324Z,3.50
2018-05-06T07:32:28.417Z,3.87
2018-05-06T07:34:54.670Z,3.67
2018-05-06T07:37:20.848Z,3.97
2018-05-06T07:39:47.106Z,4.03
2018-05-06T07:42:13.274Z,3.83
2018-05-06T07:44:39.453Z,3.27
2018-05-06T07:47:05.618Z,3.33
2018-05-06T07:49:31.817Z,3.17
2018-05-06T07:51:57.981Z,2.83
2018-05-06T07:54:24.172Z,2.73
2018-05-06T07:56:50.353Z,3.20
2018-05-06T07:59:16.565Z,3.33
2018-05-06T08:01:42.785Z,3.50
2018-05-06T08:04:09.013Z,3.67
2018-05-06T08:06:35.177Z,3.50
2018-05-06T08:09:01.386Z,4.00
2018-05-06T08:11:27.576Z,3.77
2018-05-06T08:13:53.756Z,3.43
2018-05-06T08:16:20.756Z,3.33
2018-05-06T08:18:46.861Z,3.07
2018-05-06T08:21:13.034Z,3.10
2018-05-06T08:23:39.241Z,3.30
2018-05-06T08:26:05.417Z,2.33
2018-05-06T08:28:32.325Z,4.30
2018-05-06T08:30:58.521Z,4.23
2018-05-06T08:33:24.673Z,3.90
2018-05-06T08:35:50.850Z,4.27
2018-05-06T08:38:17.028Z,4.10
2018-05-06T08:40:43.221Z,4.40
2018-05-06T08:43:09.412Z,3.00
2018-05-06T08:45:35.594Z,3.10
2018-05-06T08:48:02.039Z,2.37
2018-05-06T08:50:28.263Z,2.70
2018-05-06T08:52:54.426Z,2.83
2018-05-06T08:55:20.611Z,2.40
2018-05-06T08:57:46.782Z,2.70
2018-05-06T09:00:12.989Z,2.40
2018-05-06T09:02:39.166Z,17.57
2018-05-06T09:05:06.386Z,13.47
2018-05-06T09:07:32.626Z,5.70
2018-05-06T09:09:58.830Z,2.70
2018-05-06T09:12:25.027Z,2.73
2018-05-06T09:14:52.042Z,9.40
2018-05-06T09:17:18.216Z,4.67
2018-05-06T09:19:44.451Z,2.70
2018-05-06T09:22:10.624Z,2.37
2018-05-06T09:24:36.929Z,2.70
2018-05-06T09:27:03.933Z,2.73
2018-05-06T09:29:30.109Z,2.73
2018-05-06T09:31:56.301Z,2.53
2018-05-06T09:34:22.500Z,2.60
2018-05-06T09:36:48.700Z,2.90
2018-05-06T09:39:14.901Z,2.53
2018-05-06T09:41:41.882Z,2.20
2018-05-06T09:44:08.039Z,2.30
2018-05-06T09:46:34.231Z,2.73
2018-05-06T09:49:00.399Z,2.10
2018-05-06T09:51:26.660Z,2.37
2018-05-06T09:53:52.922Z,2.33
2018-05-06T09:56:19.065Z,1.90
2018-05-06T09:58:45.286Z,2.40
2018-05-06T10:01:11.488Z,2.50
2018-05-06T10:03:37.661Z,2.07
2018-05-06T10:06:03.874Z,2.70
2018-05-06T10:08:30.031Z,2.07
2018-05-06T10:10:56.952Z,2.20
2018-05-06T10:13:23.110Z,2.20
2018-05-06T10:15:50.120Z,2.00
2018-05-06T10:18:16.242Z,2.80
2018-05-06T10:20:42.429Z,1.80
2018-05-06T10:23:08.641Z,3.93
2018-05-06T10:25:35.641Z,2.10
2018-05-06T10:28:01.881Z,2.70
2018-05-06T10:30:28.055Z,2.73
2018-05-06T10:32:54.212Z,2.60
2018-05-06T10:35:20.470Z,1.97
2018-05-06T10:37:46.682Z,2.00
2018-05-06T10:40:12.889Z,2.10
2018-05-06T10:42:39.228Z,2.30
2018-05-06T10:45:05.427Z,2.40
2018-05-06T10:47:31.631Z,2.50
2018-05-06T10:49:57.791Z,2.90
2018-05-06T10:52:24.023Z,2.80
2018-05-06T10:54:50.187Z,3.13
2018-05-06T10:57:16.386Z,2.37
2018-05-06T10:59:42.541Z,2.10
2018-05-06T11:02:08.755Z,2.43
2018-05-06T11:04:34.972Z,2.80
2018-05-06T11:07:01.224Z,2.20
2018-05-06T11:09:27.409Z,1.87
2018-05-06T11:11:53.602Z,2.17
2018-05-06T11:14:19.790Z,2.30
2018-05-06T11:16:45.983Z,2.70
2018-05-06T11:19:12.183Z,2.40
2018-05-06T11:21:39.136Z,3.50
2018-05-06T11:24:05.306Z,4.07
2018-05-06T11:26:31.541Z,4.70
2018-05-06T11:28:57.698Z,3.57
2018-05-06T11:31:24.617Z,5.00
2018-05-06T11:33:50.804Z,2.70
2018-05-06T11:36:16.994Z,3.07
2018-05-06T11:38:43.174Z,2.50
2018-05-06T11:41:09.407Z,3.07
2018-05-06T11:43:35.576Z,2.67
2018-05-06T11:46:01.750Z,1.93
2018-05-06T11:48:27.913Z,3.40
2018-05-06T11:50:54.088Z,2.27
2018-05-06T11:53:20.292Z,2.77
2018-05-06T11:55:46.512Z,2.57
2018-05-06T11:58:12.694Z,2.63
2018-05-06T12:00:39.918Z,2.30
2018-05-06T12:03:06.098Z,2.33
2018-05-06T12:05:32.282Z,3.23
2018-05-06T12:07:58.521Z,4.80
2018-05-06T12:10:24.693Z,2.37
2018-05-06T12:12:50.946Z,3.07
2018-05-06T12:15:17.106Z,1.93
2018-05-06T12:17:43.342Z,2.37
2018-05-06T12:20:09.515Z,2.50
2018-05-06T12:22:35.688Z,2.13
2018-05-06T12:25:01.869Z,2.40
2018-05-06T12:27:28.066Z,2.53
2018-05-06T12:29:54.265Z,2.43
2018-05-06T12:32:20.450Z,2.57
2018-05-06T12:34:46.626Z,2.70
2018-05-06T12:37:12.865Z,3.63
2018-05-06T12:39:39.112Z,3.43
2018-05-06T12:42:05.318Z,5.80
2018-05-06T12:44:31.476Z,8.10
2018-05-06T12:46:58.422Z,6.27
2018-05-06T12:49:24.622Z,2.93
2018-05-06T12:51:50.789Z,5.93
2018-05-06T12:54:16.957Z,2.80
2018-05-06T12:56:43.149Z,3.63
2018-05-06T12:59:09.319Z,2.77
2018-05-06T13:01:35.506Z,2.00
2018-05-06T13:04:01.737Z,3.40
2018-05-06T13:06:27.940Z,2.73
2018-05-06T13:08:54.150Z,2.20
2018-05-06T13:11:20.373Z,2.23
2018-05-06T13:13:46.562Z,3.07
2018-05-06T13:16:12.746Z,5.23
2018-05-06T13:18:38.926Z,2.20
2018-05-06T13:21:05.126Z,4.43
2018-05-06T13:23:31.328Z,2.60
2018-05-06T13:25:57.518Z,15.60
2018-05-06T13:28:23.704Z,5.00
2018-05-06T13:30:49.894Z,4.23
2018-05-06T13:33:16.077Z,11.40
2018-05-06T13:35:42.237Z,7.93
2018-05-06T13:38:08.437Z,5.77
2018-05-06T13:40:34.678Z,7.23
2018-05-06T13:43:00.870Z,6.60
2018-05-06T13:45:27.035Z,3.53
2018-05-06T13:47:53.221Z,2.10
2018-05-06T13:50:19.410Z,5.00
2018-05-06T13:52:45.619Z,4.73
2018-05-06T13:55:11.799Z,5.10
2018-05-06T13:57:37.994Z,2.83
2018-05-06T14:00:04.987Z,2.30
2018-05-06T14:02:31.169Z,2.83
2018-05-06T14:04:57.351Z,2.30
2018-05-06T14:07:23.548Z,2.97
2018-05-06T14:09:49.738Z,1.83
2018-05-06T14:12:15.916Z,2.70
2018-05-06T14:14:42.157Z,2.13
2018-05-06T14:17:08.346Z,3.40
2018-05-06T14:19:34.525Z,2.63
2018-05-06T14:22:00.754Z,3.47
2018-05-06T14:24:26.955Z,2.43
2018-05-06T14:26:53.127Z,2.90
2018-05-06T14:29:19.320Z,2.70
2018-05-06T14:31:45.502Z,2.57
2018-05-06T14:34:11.709Z,2.73
2018-05-06T14:36:37.874Z,1.87
2018-05-06T14:39:04.985Z,6.60
2018-05-06T14:41:31.143Z,2.20
2018-05-06T14:43:57.328Z,2.80
2018-05-06T14:46:35.733Z,2.10
2018-05-06T14:49:01.909Z,2.80
2018-05-06T14:51:28.071Z,2.47
2018-05-06T14:53:54.242Z,2.03
2018-05-06T14:56:20.415Z,2.80
2018-05-06T14:58:47.590Z,2.00
2018-05-06T15:01:13.795Z,2.27
2018-05-06T15:03:40.035Z,2.10
2018-05-06T15:06:06.137Z,2.50
2018-05-06T15:08:32.310Z,3.70
2018-05-06T15:10:59.209Z,3.20
2018-05-06T15:13:25.414Z,3.20
2018-05-06T15:15:51.603Z,2.97
2018-05-06T15:18:18.557Z,2.17
2018-05-06T15:20:45.491Z,2.50
2018-05-06T15:23:12.626Z,2.40
2018-05-06T15:25:38.807Z,2.60
2018-05-06T15:28:05.005Z,1.83
2018-05-06T15:30:31.971Z,2.43
2018-05-06T15:32:58.142Z,2.60
2018-05-06T15:35:24.326Z,2.50
2018-05-06T15:37:50.480Z,2.57
2018-05-06T15:40:16.693Z,2.20
2018-05-06T15:42:42.856Z,2.00
2018-05-06T15:45:09.037Z,2.17
2018-05-06T15:47:35.213Z,1.90
2018-05-06T15:50:01.399Z,2.00
2018-05-06T15:52:27.586Z,2.40
2018-05-06T15:54:53.778Z,2.70
2018-05-06T15:57:19.999Z,2.50
2018-05-06T15:59:46.249Z,7.80
2018-05-06T16:02:34.433Z,3.43
2018-05-06T16:05:00.641Z,3.20
2018-05-06T16:07:26.973Z,5.67
2018-05-06T16:09:53.893Z,9.00
2018-05-06T16:12:20.090Z,4.70
2018-05-06T16:14:46.326Z,43.30
2018-05-06T16:17:12.525Z,33.87
2018-05-06T16:19:38.717Z,15.70
2018-05-06T16:22:05.647Z,18.50
2018-05-06T16:24:31.819Z,5.37
2018-05-06T16:26:57.986Z,7.40
2018-05-06T16:29:24.183Z,6.37
2018-05-06T16:31:51.221Z,2.00
2018-05-06T16:34:17.510Z,4.40
2018-05-06T16:36:43.802Z,4.80
2018-05-06T16:39:10.013Z,2.27
2018-05-06T16:41:36.281Z,2.37
2018-05-06T16:44:03.278Z,2.10
2018-05-06T16:46:29.440Z,2.00
2018-05-06T16:48:55.702Z,2.23
2018-05-06T16:51:21.886Z,2.40
2018-05-06T16:53:48.061Z,2.27
2018-05-06T16:56:15.002Z,2.60
2018-05-06T16:58:41.209Z,2.17
2018-05-06T17:01:07.430Z,2.80
2018-05-06T17:03:33.613Z,2.13
2018-05-06T17:05:59.838Z,2.00
2018-05-06T17:08:26.013Z,2.13
2018-05-06T17:10:52.227Z,2.33
2018-05-06T17:13:18.405Z,2.07
2018-05-06T17:15:44.613Z,2.77
2018-05-06T17:18:10.797Z,2.00
2018-05-06T17:20:36.990Z,2.57
2018-05-06T17:23:03.270Z,2.17
2018-05-06T17:25:29.521Z,2.40
2018-05-06T17:27:55.762Z,1.83
2018-05-06T17:30:21.966Z,2.30
2018-05-06T17:32:48.166Z,2.07
2018-05-06T17:35:14.378Z,2.47
2018-05-06T17:37:40.565Z,2.53
2018-05-06T17:40:06.767Z,2.27
2018-05-06T17:42:32.946Z,1.97
2018-05-06T17:44:59.138Z,2.03
2018-05-06T17:47:26.052Z,2.10
2018-05-06T17:49:52.327Z,2.17
2018-05-06T17:52:18.570Z,2.17
2018-05-06T17:54:44.799Z,1.73
2018-05-06T17:57:10.977Z,2.33
2018-05-06T17:59:37.157Z,2.00
2018-05-06T18:02:03.358Z,1.93
2018-05-06T18:04:29.605Z,1.70
2018-05-06T18:06:55.976Z,2.07
2018-05-06T18:09:22.161Z,1.70
2018-05-06T18:11:48.347Z,2.10
2018-05-06T18:14:15.301Z,2.33
2018-05-06T18:16:41.582Z,2.20
2018-05-06T18:19:07.859Z,2.47
2018-05-06T18:21:34.870Z,2.47
2018-05-06T18:24:01.066Z,2.03
2018-05-06T18:26:27.325Z,2.60
2018-05-06T18:28:53.526Z,1.80
2018-05-06T18:31:19.756Z,2.07
2018-05-06T18:33:46.070Z,2.20
2018-05-06T18:36:12.441Z,2.17
2018-05-06T18:38:38.687Z,2.27
2018-05-06T18:41:04.935Z,2.23
2018-05-06T18:43:31.121Z,2.37
2018-05-06T18:45:57.374Z,2.63
2018-05-06T18:48:23.666Z,2.40
2018-05-06T18:50:50.668Z,2.57
2018-05-06T18:53:17.698Z,2.80
2018-05-06T18:55:44.059Z,3.00
2018-05-06T18:58:10.310Z,3.40
2018-05-06T19:00:36.544Z,2.73
2018-05-06T19:03:02.799Z,2.70
2018-05-06T19:05:29.035Z,2.10
2018-05-06T19:07:55.266Z,2.73
2018-05-06T19:10:21.475Z,2.20
2018-05-06T19:12:47.691Z,2.60
2018-05-06T19:15:14.003Z,3.07
2018-05-06T19:17:40.270Z,2.83
2018-05-06T19:20:06.561Z,2.40
2018-05-06T19:22:32.802Z,2.70
2018-05-06T19:24:59.055Z,4.03
2018-05-06T19:27:25.509Z,2.50
2018-05-06T19:29:51.818Z,2.73
2018-05-06T19:32:18.037Z,3.80
2018-05-06T19:34:44.471Z,4.50
2018-05-06T19:37:10.713Z,2.97
2018-05-06T19:39:36.949Z,2.80
2018-05-06T19:42:03.281Z,3.63
2018-05-06T19:44:29.519Z,3.13
2018-05-06T19:46:56.482Z,2.40
2018-05-06T19:49:22.679Z,2.83
2018-05-06T19:51:49.084Z,2.50
2018-05-06T19:54:15.273Z,2.53
2018-05-06T19:56:41.569Z,2.60
2018-05-06T19:59:07.832Z,3.30
2018-05-06T20:01:34.061Z,2.83
2018-05-06T20:04:00.473Z,2.53
2018-05-06T20:06:26.697Z,2.80
2018-05-06T20:08:52.892Z,2.90
2018-05-06T20:11:19.093Z,2.90
2018-05-06T20:13:45.339Z,3.77
2018-05-06T20:16:11.845Z,2.60
2018-05-06T20:18:38.164Z,3.00
2018-05-06T20:21:04.377Z,3.00
2018-05-06T20:23:30.546Z,2.80
2018-05-06T20:25:56.863Z,3.00
2018-05-06T20:28:23.238Z,2.73
2018-05-06T20:30:49.444Z,3.80
2018-05-06T20:33:15.650Z,3.00
2018-05-06T20:35:41.847Z,4.07
2018-05-06T20:38:08.405Z,3.83
2018-05-06T20:40:35.470Z,3.17
2018-05-06T20:43:01.995Z,3.03
2018-05-06T20:45:28.198Z,3.47
2018-05-06T20:47:54.387Z,3.00
2018-05-06T20:50:20.588Z,3.60
2018-05-06T20:52:46.835Z,3.90
2018-05-06T20:55:13.199Z,2.93
2018-05-06T20:57:39.510Z,4.10
2018-05-06T21:00:06.040Z,3.60
2018-05-06T21:02:32.243Z,3.90
2018-05-06T21:04:58.438Z,4.43
2018-05-06T21:07:24.961Z,3.83
2018-05-06T21:09:51.167Z,4.30
2018-05-06T21:12:18.137Z,3.87
2018-05-06T21:14:44.475Z,4.10
2018-05-06T21:17:10.675Z,4.10
2018-05-06T21:19:36.878Z,3.63
2018-05-06T21:22:03.275Z,4.43
2018-05-06T21:24:29.518Z,4.03
2018-05-06T21:26:55.717Z,3.70
2018-05-06T21:29:21.881Z,3.70
2018-05-06T21:31:48.165Z,3.93
2018-05-06T21:34:15.240Z,4.30
2018-05-06T21:36:41.520Z,3.83
2018-05-06T21:39:08.546Z,4.20
2018-05-06T21:41:34.637Z,3.60
2018-05-06T21:44:00.833Z,4.37
2018-05-06T21:46:27.019Z,3.90
2018-05-06T21:48:53.196Z,4.20
2018-05-06T21:51:19.350Z,3.70
2018-05-06T21:53:45.535Z,3.63
2018-05-06T21:56:11.713Z,3.47
2018-05-06T21:58:37.897Z,3.57
2018-05-06T22:01:04.099Z,4.13
2018-05-06T22:03:31.022Z,3.30
2018-05-06T22:05:57.201Z,3.77
2018-05-06T22:08:23.381Z,4.20
2018-05-06T22:10:49.545Z,3.67
2018-05-06T22:13:15.730Z,3.03
2018-05-06T22:15:41.899Z,4.00
2018-05-06T22:18:08.083Z,3.80
2018-05-06T22:20:34.253Z,4.30
2018-05-06T22:23:00.429Z,3.80
2018-05-06T22:25:26.598Z,3.27
2018-05-06T22:27:52.773Z,4.23
2018-05-06T22:30:18.967Z,3.40
2018-05-06T22:32:45.162Z,3.90
2018-05-06T22:35:11.953Z,3.87
2018-05-06T22:37:38.146Z,3.87
2018-05-06T22:40:04.365Z,3.87
2018-05-06T22:42:30.542Z,3.20
2018-05-06T22:44:56.808Z,3.83
2018-05-06T22:47:23.756Z,4.00
2018-05-06T22:49:49.938Z,4.23
2018-05-06T22:52:16.118Z,4.50
2018-05-06T22:54:49.282Z,4.27
2018-05-06T22:57:15.486Z,4.07
2018-05-06T22:59:41.691Z,3.90
2018-05-06T23:02:07.880Z,4.30
2018-05-06T23:04:34.058Z,4.13
2018-05-06T23:07:00.214Z,4.33
2018-05-06T23:09:26.394Z,4.83
2018-05-06T23:11:52.568Z,3.83
2018-05-06T23:14:18.742Z,4.20
2018-05-06T23:16:44.895Z,4.30
2018-05-06T23:19:11.073Z,4.20
2018-05-06T23:21:37.276Z,3.90
2018-05-06T23:24:03.450Z,3.90
2018-05-06T23:26:29.638Z,4.47
2018-05-06T23:28:55.865Z,3.87
2018-05-06T23:31:22.050Z,4.57
2018-05-06T23:33:48.242Z,3.83
2018-05-06T23:36:14.428Z,3.83
2018-05-06T23:38:41.445Z,4.20
2018-05-06T23:41:07.629Z,3.87
2018-05-06T23:43:33.809Z,4.77
2018-05-06T23:45:59.974Z,3.83
2018-05-06T23:48:26.168Z,4.27
2018-05-06T23:50:52.338Z,4.80
2018-05-06T23:53:18.561Z,4.20
2018-05-06T23:55:44.713Z,4.30
2018-05-06T23:58:10.930Z,4.37
